Skip to main content.
 TIME   TEMPERATURE   WINDSPEED   DIRECTION   HUMIDITY   BAROMETER   RAINFALL 
18:05 24.0°C (75.2°F) 22.2 kmh (13.8 mph) E 64% 1015.9hPa (30.00 inHg) 0.0mm (0.00 in.)
17:05 25.0°C (77.0 °F) 24.1 kmh (15.0 mph) E 65% 1015.9hPa (30.00 inHg) 0.0mm (0.00 in.)
16:05 25.0°C (77.0 °F) 24.1 kmh (15.0 mph) E 69% 1015.9hPa (30.00 inHg) 0.0mm (0.00 in.)
15:05 26.0°C (78.8 °F) 22.2 kmh (13.8 mph) E 65% 1015.9hPa (30.00 inHg) 0.0mm (0.00 in.)
14:05 26.0°C (78.8 °F) 22.2 kmh (13.8 mph) E 65% 1015.9hPa (30.00 inHg) 0.0mm (0.00 in.)
13:05 26.0°C (78.8 °F) 22.2 kmh (13.8 mph) NNE 65% 1015.9hPa (30.00 inHg) 0.0mm (0.00 in.)
12:05 26.0°C (78.8 °F) 16.7 kmh (10.4 mph) NNE 61% 1015.9hPa (30.00 inHg) 0.0mm (0.00 in.)
11:05 26.0°C (78.8 °F) 22.2 kmh (13.8 mph) NNE 57% 1015.9hPa (30.00 inHg) 0.0mm (0.00 in.)
10:05 26.0°C (78.8 °F) 18.5 kmh (11.5 mph) N 61% 1015.9hPa (30.00 inHg) 0.0mm (0.00 in.)
9:05 25.0°C (77.0 °F) 22.2 kmh (13.8 mph) NNW 69% 1014.9hPa (29.97 inHg) 0.0mm (0.00 in.)
8:05 23.0°C (73.4 °F) 18.5 kmh (11.5 mph) WNW 78% 1014.9hPa (29.97 inHg) 0.0mm (0.00 in.)
7:05 22.0°C (71.6 °F) 20.4 kmh (12.7 mph) WNW 78% 1014.9hPa (29.97 inHg) 0.0mm (0.00 in.)
6:05 21.0°C (69.8 °F) 13.0 kmh (8.1 mph) W 88% 1013.9hPa (29.94 inHg) 0.0mm (0.00 in.)
5:05 21.0°C (69.8 °F) 13.0 kmh (8.1 mph) WSW 88% 1014.9hPa (29.97 inHg) 0.0mm (0.00 in.)
4:05 21.0°C (69.8 °F) 9.3 kmh (5.8 mph) WSW 77% 1014.9hPa (29.97 inHg) 0.0mm (0.00 in.)
3:05 21.0°C (69.8 °F) 11.1 kmh (6.9 mph) W 88% 1014.9hPa (29.97 inHg) 0.0mm (0.00 in.)
2:05 21.0°C (69.8 °F) 9.3 kmh (5.8 mph) WSW 88% 1014.9hPa (29.97 inHg) 0.0mm (0.00 in.)
1:05 21.0°C (69.8 °F) 5.6 kmh (3.5 mph) SW 88% 1014.9hPa (29.97 inHg) 0.0mm (0.00 in.)
0:05 21.0°C (69.8 °F) 7.4 kmh (4.6 mph) WSW 82% 1015.9hPa (30.00 inHg) 0.0mm (0.00 in.)
23:05 22.0°C (71.6 °F) 3.7 kmh (2.3 mph) WSW 78% 1015.9hPa (30.00 inHg) 0.0mm (0.00 in.)
22:05 22.0°C (71.6 °F) 7.4 kmh (4.6 mph) WSW 68% 1015.9hPa (30.00 inHg) 0.0mm (0.00 in.)
21:05 23.0°C (73.4 °F) 9.3 kmh (5.8 mph) WSW 64% 1014.9hPa (29.97 inHg) 0.0mm (0.00 in.)
20:05 24.0°C (75.2 °F) 13.0 kmh (8.1 mph) SW 69% 1014.9hPa (29.97 inHg) 0.0mm (0.00 in.)
19:05 24.0°C (75.2 °F) 11.1 kmh (6.9 mph) SSW 73% 1014.9hPa (29.97 inHg) 0.0mm (0.00 in.)